createdAt,value
2017-08-26T00:00:14.990Z,8.20
2017-08-26T00:01:12.309Z,8.60
2017-08-26T00:02:09.966Z,8.60
2017-08-26T00:03:11.802Z,8.40
2017-08-26T00:04:09.176Z,9.00
2017-08-26T00:05:06.469Z,8.30
2017-08-26T00:06:03.734Z,8.40
2017-08-26T00:07:01.112Z,8.20
2017-08-26T00:07:58.401Z,8.20
2017-08-26T00:08:55.673Z,8.90
2017-08-26T00:09:52.965Z,8.80
2017-08-26T00:10:50.257Z,9.00
2017-08-26T00:11:47.538Z,9.60
2017-08-26T00:12:44.821Z,8.70
2017-08-26T00:13:42.058Z,8.30
2017-08-26T00:14:39.344Z,8.00
2017-08-26T00:15:36.577Z,8.10
2017-08-26T00:16:33.877Z,8.10
2017-08-26T00:17:31.116Z,9.60
2017-08-26T00:18:28.401Z,9.70
2017-08-26T00:19:25.690Z,8.10
2017-08-26T00:20:22.965Z,9.20
2017-08-26T00:21:20.222Z,8.30
2017-08-26T00:22:17.516Z,9.30
2017-08-26T00:23:14.787Z,10.70
2017-08-26T00:24:12.073Z,11.00
2017-08-26T00:25:09.344Z,10.00
2017-08-26T00:26:06.633Z,10.40
2017-08-26T00:27:03.933Z,10.20
2017-08-26T00:28:01.197Z,9.30
2017-08-26T00:28:58.485Z,8.60
2017-08-26T00:29:55.785Z,8.60
2017-08-26T00:30:53.062Z,8.00
2017-08-26T00:31:50.377Z,6.70
2017-08-26T00:32:47.651Z,9.00
2017-08-26T00:33:44.953Z,9.40
2017-08-26T00:34:42.224Z,8.50
2017-08-26T00:35:39.514Z,8.70
2017-08-26T00:36:36.790Z,10.20
2017-08-26T00:37:34.092Z,9.70
2017-08-26T00:38:31.381Z,9.30
2017-08-26T00:39:28.673Z,9.10
2017-08-26T00:40:25.954Z,9.70
2017-08-26T00:41:23.242Z,9.10
2017-08-26T00:42:20.532Z,8.90
2017-08-26T00:43:17.820Z,8.70
2017-08-26T00:44:15.091Z,9.50
2017-08-26T00:45:12.381Z,9.00
2017-08-26T00:46:09.637Z,8.00
2017-08-26T00:47:06.922Z,8.10
2017-08-26T00:48:04.218Z,8.30
2017-08-26T00:49:01.525Z,8.20
2017-08-26T00:49:58.802Z,9.30
2017-08-26T00:50:56.083Z,8.20
2017-08-26T00:51:53.346Z,9.10
2017-08-26T00:52:50.649Z,8.70
2017-08-26T00:53:47.894Z,8.20
2017-08-26T00:54:45.169Z,8.50
2017-08-26T00:55:42.449Z,7.50
2017-08-26T00:56:39.736Z,7.60
2017-08-26T00:57:37.002Z,7.90
2017-08-26T00:58:34.320Z,8.10
2017-08-26T00:59:31.621Z,7.80
2017-08-26T01:00:28.965Z,8.30
2017-08-26T01:01:26.612Z,7.80
2017-08-26T01:02:23.909Z,8.90
2017-08-26T01:03:21.193Z,7.40
2017-08-26T01:04:18.473Z,8.90
2017-08-26T01:05:15.773Z,8.60
2017-08-26T01:06:13.171Z,8.40
2017-08-26T01:07:10.449Z,7.00
2017-08-26T01:08:12.309Z,8.40
2017-08-26T01:09:09.576Z,8.80
2017-08-26T01:10:06.876Z,8.50
2017-08-26T01:11:04.150Z,8.80
2017-08-26T01:12:01.437Z,7.90
2017-08-26T01:12:58.709Z,9.10
2017-08-26T01:13:56.350Z,8.60
2017-08-26T01:14:53.625Z,8.40
2017-08-26T01:15:50.905Z,8.90
2017-08-26T01:16:48.178Z,8.20
2017-08-26T01:17:45.474Z,8.90
2017-08-26T01:18:42.742Z,7.90
2017-08-26T01:19:40.014Z,7.60
2017-08-26T01:20:37.277Z,9.50
2017-08-26T01:21:34.571Z,8.90
2017-08-26T01:22:31.813Z,8.50
2017-08-26T01:23:29.098Z,9.20
2017-08-26T01:24:26.361Z,8.00
2017-08-26T01:25:23.782Z,7.10
2017-08-26T01:26:21.037Z,7.50
2017-08-26T01:27:18.356Z,6.80
2017-08-26T01:28:15.662Z,7.30
2017-08-26T01:29:12.972Z,7.30
2017-08-26T01:30:10.247Z,6.70
2017-08-26T01:31:07.523Z,7.30
2017-08-26T01:32:04.801Z,7.60
2017-08-26T01:33:02.086Z,8.80
2017-08-26T01:33:59.385Z,6.70
2017-08-26T01:34:56.681Z,8.10
2017-08-26T01:35:53.973Z,7.40
2017-08-26T01:36:51.266Z,7.80
2017-08-26T01:37:48.530Z,7.20
2017-08-26T01:38:45.857Z,6.60
2017-08-26T01:39:43.136Z,7.50
2017-08-26T01:40:40.434Z,7.20
2017-08-26T01:41:37.713Z,7.20
2017-08-26T01:42:35.002Z,6.80
2017-08-26T01:43:32.261Z,7.90
2017-08-26T01:44:29.553Z,7.60
2017-08-26T01:45:26.813Z,7.20
2017-08-26T01:46:24.105Z,7.30
2017-08-26T01:47:21.365Z,8.00
2017-08-26T01:48:18.649Z,7.50
2017-08-26T01:49:15.941Z,7.60
2017-08-26T01:50:13.245Z,6.10
2017-08-26T01:51:10.520Z,6.50
2017-08-26T01:52:07.815Z,7.20
2017-08-26T01:53:05.080Z,6.10
2017-08-26T01:54:02.380Z,7.40
2017-08-26T01:54:59.650Z,7.50
2017-08-26T01:55:56.929Z,7.40
2017-08-26T01:56:54.198Z,7.00
2017-08-26T01:57:51.581Z,8.70
2017-08-26T01:58:48.853Z,7.50
2017-08-26T01:59:46.161Z,6.50
2017-08-26T02:00:43.881Z,7.60
2017-08-26T02:01:41.177Z,7.50
2017-08-26T02:02:38.437Z,7.10
2017-08-26T02:03:35.747Z,6.80
2017-08-26T02:04:33.045Z,6.40
2017-08-26T02:05:30.317Z,6.90
2017-08-26T02:06:27.582Z,7.60
2017-08-26T02:07:24.849Z,6.40
2017-08-26T02:08:22.133Z,8.00
2017-08-26T02:09:19.409Z,7.10
2017-08-26T02:10:16.689Z,8.10
2017-08-26T02:11:13.983Z,8.40
2017-08-26T02:12:11.258Z,8.00
2017-08-26T02:13:08.559Z,7.00
2017-08-26T02:14:05.825Z,7.80
2017-08-26T02:15:03.142Z,7.30
2017-08-26T02:16:00.422Z,7.20
2017-08-26T02:16:57.729Z,8.00
2017-08-26T02:17:55.010Z,7.60
2017-08-26T02:18:52.308Z,7.30
2017-08-26T02:19:49.622Z,7.50
2017-08-26T02:20:46.926Z,6.90
2017-08-26T02:21:44.219Z,7.70
2017-08-26T02:22:41.514Z,7.50
2017-08-26T02:23:38.793Z,7.20
2017-08-26T02:24:36.084Z,6.40
2017-08-26T02:25:33.392Z,7.70
2017-08-26T02:26:30.657Z,7.00
2017-08-26T02:27:27.913Z,7.10
2017-08-26T02:28:25.183Z,6.10
2017-08-26T02:29:22.454Z,7.70
2017-08-26T02:30:19.765Z,6.90
2017-08-26T02:31:17.054Z,7.60
2017-08-26T02:32:14.394Z,7.60
2017-08-26T02:33:11.649Z,8.20
2017-08-26T02:34:08.925Z,7.40
2017-08-26T02:35:06.190Z,7.80
2017-08-26T02:36:03.490Z,7.20
2017-08-26T02:37:00.756Z,7.90
2017-08-26T02:37:58.041Z,7.20
2017-08-26T02:38:55.313Z,7.40
2017-08-26T02:39:52.601Z,7.10
2017-08-26T02:40:49.897Z,7.10
2017-08-26T02:41:47.173Z,7.40
2017-08-26T02:42:44.444Z,7.00
2017-08-26T02:43:41.742Z,7.40
2017-08-26T02:44:39.026Z,7.30
2017-08-26T02:45:36.326Z,7.00
2017-08-26T02:46:33.585Z,6.40
2017-08-26T02:47:30.865Z,6.80
2017-08-26T02:48:28.148Z,6.30
2017-08-26T02:49:25.449Z,7.20
2017-08-26T02:50:22.698Z,6.40
2017-08-26T02:51:19.997Z,7.00
2017-08-26T02:52:17.249Z,6.50
2017-08-26T02:53:14.535Z,6.40
2017-08-26T02:54:11.803Z,6.70
2017-08-26T02:55:09.098Z,7.20
2017-08-26T02:56:06.377Z,7.50
2017-08-26T02:57:03.652Z,6.80
2017-08-26T02:58:00.926Z,7.70
2017-08-26T02:58:58.205Z,7.10
2017-08-26T02:59:55.477Z,7.00
2017-08-26T03:00:52.789Z,6.00
2017-08-26T03:01:50.061Z,5.80
2017-08-26T03:02:47.342Z,6.50
2017-08-26T03:03:44.613Z,6.20
2017-08-26T03:04:41.889Z,6.50
2017-08-26T03:05:39.144Z,5.90
2017-08-26T03:06:36.446Z,6.10
2017-08-26T03:07:33.718Z,6.90
2017-08-26T03:08:30.997Z,6.30
2017-08-26T03:09:28.266Z,6.40
2017-08-26T03:10:25.561Z,6.60
2017-08-26T03:11:22.837Z,6.50
2017-08-26T03:12:20.113Z,7.50
2017-08-26T03:13:17.381Z,6.30
2017-08-26T03:14:14.650Z,6.10
2017-08-26T03:15:11.912Z,6.20
2017-08-26T03:16:09.226Z,6.10
2017-08-26T03:17:06.490Z,5.10
2017-08-26T03:18:03.794Z,5.80
2017-08-26T03:19:01.068Z,5.80
2017-08-26T03:19:58.341Z,5.10
2017-08-26T03:20:55.592Z,5.30
2017-08-26T03:21:52.880Z,5.70
2017-08-26T03:22:50.136Z,5.50
2017-08-26T03:23:47.429Z,5.90
2017-08-26T03:24:44.685Z,6.00
2017-08-26T03:25:41.985Z,6.40
2017-08-26T03:26:39.273Z,5.30
2017-08-26T03:27:36.553Z,5.60
2017-08-26T03:28:33.811Z,5.80
2017-08-26T03:29:31.101Z,5.60
2017-08-26T03:30:28.346Z,5.90
2017-08-26T03:31:25.637Z,6.40
2017-08-26T03:32:22.914Z,6.00
2017-08-26T03:33:20.225Z,6.10
2017-08-26T03:34:17.513Z,6.20
2017-08-26T03:35:14.805Z,5.90
2017-08-26T03:36:12.076Z,5.40
2017-08-26T03:37:09.430Z,6.20
2017-08-26T03:38:06.686Z,6.70
2017-08-26T03:39:04.131Z,6.80
2017-08-26T03:40:01.396Z,6.80
2017-08-26T03:40:58.672Z,7.60
2017-08-26T03:41:55.966Z,7.10
2017-08-26T03:42:53.234Z,6.10
2017-08-26T03:43:50.489Z,7.00
2017-08-26T03:44:47.772Z,7.00
2017-08-26T03:45:45.037Z,6.20
2017-08-26T03:46:42.333Z,6.40
2017-08-26T03:47:39.614Z,7.10
2017-08-26T03:48:36.915Z,8.30
2017-08-26T03:49:34.185Z,6.50
2017-08-26T03:50:31.474Z,8.20
2017-08-26T03:51:28.749Z,7.70
2017-08-26T03:52:26.041Z,7.90
2017-08-26T03:53:23.313Z,8.10
2017-08-26T03:54:20.600Z,7.20
2017-08-26T03:55:17.878Z,7.00
2017-08-26T03:56:15.169Z,6.90
2017-08-26T03:57:12.445Z,7.60
2017-08-26T03:58:09.721Z,6.40
2017-08-26T03:59:06.985Z,7.10
2017-08-26T04:00:04.261Z,7.10
2017-08-26T04:01:01.542Z,7.00
2017-08-26T04:01:58.845Z,8.10
2017-08-26T04:02:56.134Z,6.80
2017-08-26T04:03:53.412Z,7.60
2017-08-26T04:04:50.681Z,7.00
2017-08-26T04:05:47.957Z,8.10
2017-08-26T04:06:45.229Z,6.60
2017-08-26T04:07:42.533Z,7.40
2017-08-26T04:08:39.788Z,7.90
2017-08-26T04:09:37.060Z,7.60
2017-08-26T04:10:34.337Z,9.00
2017-08-26T04:11:32.046Z,7.10
2017-08-26T04:12:29.334Z,7.60
2017-08-26T04:13:27.062Z,7.10
2017-08-26T04:14:24.800Z,6.40
2017-08-26T04:15:22.429Z,7.20
2017-08-26T04:16:19.689Z,6.40
2017-08-26T04:17:16.969Z,7.20
2017-08-26T04:18:14.261Z,6.90
2017-08-26T04:19:11.562Z,7.60
2017-08-26T04:20:08.825Z,7.60
2017-08-26T04:21:06.110Z,7.30
2017-08-26T04:22:03.384Z,6.70
2017-08-26T04:23:00.678Z,7.50
2017-08-26T04:23:57.968Z,7.00
2017-08-26T04:24:55.261Z,7.90
2017-08-26T04:25:52.608Z,7.20
2017-08-26T04:26:50.280Z,7.30
2017-08-26T04:27:47.567Z,6.20
2017-08-26T04:28:45.176Z,6.70
2017-08-26T04:29:42.621Z,6.70
2017-08-26T04:30:39.901Z,7.30
2017-08-26T04:31:37.175Z,6.70
2017-08-26T04:32:36.614Z,6.70
2017-08-26T04:33:33.898Z,7.50
2017-08-26T04:34:31.186Z,6.60
2017-08-26T04:35:28.485Z,7.00
2017-08-26T04:36:25.761Z,7.30
2017-08-26T04:37:23.043Z,6.50
2017-08-26T04:38:20.346Z,6.50
2017-08-26T04:39:17.626Z,6.40
2017-08-26T04:40:14.910Z,5.90
2017-08-26T04:41:12.186Z,5.70
2017-08-26T04:42:09.458Z,6.50
2017-08-26T04:43:06.757Z,5.50
2017-08-26T04:44:04.070Z,5.50
2017-08-26T04:45:01.345Z,5.60
2017-08-26T04:45:58.623Z,5.30
2017-08-26T04:46:55.885Z,6.70
2017-08-26T04:47:53.177Z,5.50
2017-08-26T04:48:50.477Z,6.70
2017-08-26T04:49:47.770Z,6.20
2017-08-26T04:50:45.068Z,6.00
2017-08-26T04:51:42.352Z,5.70
2017-08-26T04:52:39.617Z,6.70
2017-08-26T04:53:36.917Z,6.10
2017-08-26T04:54:34.181Z,5.90
2017-08-26T04:55:31.459Z,6.50
2017-08-26T04:56:28.734Z,5.70
2017-08-26T04:57:26.025Z,5.90
2017-08-26T04:58:23.315Z,5.30
2017-08-26T04:59:20.630Z,6.40
2017-08-26T05:00:17.906Z,6.10
2017-08-26T05:01:15.285Z,6.00
2017-08-26T05:02:12.575Z,6.10
2017-08-26T05:03:09.857Z,5.90
2017-08-26T05:04:07.150Z,6.20
2017-08-26T05:05:04.417Z,6.40
2017-08-26T05:06:01.690Z,6.00
2017-08-26T05:06:58.978Z,6.00
2017-08-26T05:07:56.241Z,6.10
2017-08-26T05:08:53.577Z,6.70
2017-08-26T05:09:50.856Z,6.50
2017-08-26T05:10:48.143Z,6.00
2017-08-26T05:11:45.422Z,6.10
2017-08-26T05:12:42.699Z,6.10
2017-08-26T05:13:39.957Z,5.90
2017-08-26T05:14:37.284Z,6.70
2017-08-26T05:15:34.550Z,6.20
2017-08-26T05:16:31.829Z,5.90
2017-08-26T05:17:29.077Z,6.80
2017-08-26T05:18:26.351Z,5.80
2017-08-26T05:19:23.633Z,5.90
2017-08-26T05:20:21.109Z,6.60
2017-08-26T05:21:18.369Z,6.30
2017-08-26T05:22:15.661Z,5.80
2017-08-26T05:23:12.918Z,6.20
2017-08-26T05:24:10.211Z,6.50
2017-08-26T05:25:07.477Z,6.60
2017-08-26T05:26:04.743Z,6.50
2017-08-26T05:27:01.993Z,7.60
2017-08-26T05:27:59.277Z,6.70
2017-08-26T05:28:56.541Z,6.20
2017-08-26T05:29:53.866Z,5.50
2017-08-26T05:30:51.121Z,5.10
2017-08-26T05:31:48.448Z,7.10
2017-08-26T05:32:45.713Z,6.50
2017-08-26T05:33:42.998Z,6.40
2017-08-26T05:34:40.284Z,5.60
2017-08-26T05:35:37.548Z,6.50
2017-08-26T05:36:34.802Z,7.80
2017-08-26T05:37:32.101Z,7.10
2017-08-26T05:38:29.360Z,6.50
2017-08-26T05:39:26.640Z,6.20
2017-08-26T05:40:24.037Z,6.00
2017-08-26T05:41:21.319Z,6.60
2017-08-26T05:42:18.587Z,6.00
2017-08-26T05:43:15.877Z,6.40
2017-08-26T05:44:13.118Z,7.10
2017-08-26T05:45:10.418Z,5.50
2017-08-26T05:46:07.682Z,6.40
2017-08-26T05:47:04.956Z,5.60
2017-08-26T05:48:02.242Z,6.70
2017-08-26T05:48:59.533Z,6.10
2017-08-26T05:49:57.028Z,6.90
2017-08-26T05:50:54.309Z,6.20
2017-08-26T05:51:53.621Z,6.20
2017-08-26T05:52:50.949Z,6.90
2017-08-26T05:53:48.217Z,6.30
2017-08-26T05:54:45.497Z,6.60
2017-08-26T05:55:42.790Z,6.50
2017-08-26T05:56:40.082Z,6.40
2017-08-26T05:57:37.357Z,7.60
2017-08-26T05:58:34.645Z,6.20
2017-08-26T05:59:31.914Z,6.70
2017-08-26T06:00:29.237Z,6.40
2017-08-26T06:01:26.524Z,6.10
2017-08-26T06:02:25.862Z,6.80
2017-08-26T06:03:23.126Z,6.60
2017-08-26T06:04:20.424Z,7.10
2017-08-26T06:05:17.750Z,6.50
2017-08-26T06:06:15.038Z,7.20
2017-08-26T06:07:12.319Z,6.70
2017-08-26T06:08:09.605Z,6.90
2017-08-26T06:09:06.861Z,6.00
2017-08-26T06:10:04.157Z,6.60
2017-08-26T06:11:01.453Z,6.20
2017-08-26T06:11:58.753Z,6.60
2017-08-26T06:12:56.073Z,6.70
2017-08-26T06:13:53.377Z,6.70
2017-08-26T06:14:50.727Z,6.80
2017-08-26T06:15:48.041Z,7.60
2017-08-26T06:16:45.309Z,6.40
2017-08-26T06:17:42.598Z,7.30
2017-08-26T06:18:41.936Z,6.10
2017-08-26T06:19:39.200Z,6.40
2017-08-26T06:20:36.522Z,7.30
2017-08-26T06:21:33.832Z,6.30
2017-08-26T06:22:31.145Z,6.60
2017-08-26T06:23:28.421Z,6.50
2017-08-26T06:24:25.709Z,7.10
2017-08-26T06:25:22.971Z,7.30
2017-08-26T06:26:20.269Z,7.30
2017-08-26T06:27:17.550Z,6.40
2017-08-26T06:28:14.821Z,7.10
2017-08-26T06:29:12.089Z,7.10
2017-08-26T06:30:09.371Z,7.00
2017-08-26T06:31:06.667Z,7.20
2017-08-26T06:32:04.457Z,6.50
2017-08-26T06:33:01.776Z,6.80
2017-08-26T06:33:59.161Z,7.10
2017-08-26T06:34:56.465Z,7.20
2017-08-26T06:35:53.746Z,6.40
2017-08-26T06:36:51.040Z,7.20
2017-08-26T06:37:48.446Z,7.90
2017-08-26T06:38:45.809Z,7.10
2017-08-26T06:39:43.085Z,6.90
2017-08-26T06:40:40.410Z,7.90
2017-08-26T06:41:37.761Z,7.30
2017-08-26T06:42:35.041Z,7.30
2017-08-26T06:43:32.338Z,6.80
2017-08-26T06:44:29.722Z,7.60
2017-08-26T06:45:27.025Z,8.30
2017-08-26T06:46:24.306Z,7.30
2017-08-26T06:47:21.609Z,7.50
2017-08-26T06:48:18.909Z,8.50
2017-08-26T06:49:16.232Z,8.90
2017-08-26T06:50:13.516Z,8.10
2017-08-26T06:51:10.797Z,9.10
2017-08-26T06:52:08.574Z,9.40
2017-08-26T06:53:05.894Z,8.50
2017-08-26T06:54:03.237Z,8.30
2017-08-26T06:55:00.547Z,8.80
2017-08-26T06:55:57.858Z,8.30
2017-08-26T06:56:55.265Z,8.80
2017-08-26T06:57:52.547Z,8.80
2017-08-26T06:58:49.821Z,8.60
2017-08-26T06:59:47.065Z,10.70
2017-08-26T07:00:44.694Z,9.60
2017-08-26T07:01:41.965Z,8.90
2017-08-26T07:02:39.229Z,10.50
2017-08-26T07:03:36.485Z,9.70
2017-08-26T07:04:33.744Z,9.80
2017-08-26T07:05:31.050Z,7.90
2017-08-26T07:06:28.321Z,9.10
2017-08-26T07:07:25.599Z,8.70
2017-08-26T07:08:22.874Z,10.30
2017-08-26T07:09:20.115Z,9.90
2017-08-26T07:10:17.391Z,8.80
2017-08-26T07:11:14.726Z,10.00
2017-08-26T07:12:12.033Z,10.80
2017-08-26T07:13:09.303Z,9.80
2017-08-26T07:14:06.641Z,9.20
2017-08-26T07:15:03.889Z,9.30
2017-08-26T07:16:01.162Z,9.70
2017-08-26T07:16:58.427Z,9.80
2017-08-26T07:17:55.730Z,9.10
2017-08-26T07:18:53.115Z,9.80
2017-08-26T07:19:50.425Z,9.70
2017-08-26T07:20:47.707Z,9.00
2017-08-26T07:21:45.114Z,9.70
2017-08-26T07:22:42.381Z,10.00
2017-08-26T07:23:39.653Z,10.10
2017-08-26T07:24:36.929Z,10.50
2017-08-26T07:25:34.206Z,10.20
2017-08-26T07:26:31.466Z,10.60
2017-08-26T07:27:28.769Z,10.80
2017-08-26T07:28:26.026Z,10.90
2017-08-26T07:29:23.346Z,10.30
2017-08-26T07:30:20.653Z,11.00
2017-08-26T07:31:17.974Z,10.40
2017-08-26T07:32:15.257Z,11.70
2017-08-26T07:33:12.553Z,9.90
2017-08-26T07:34:09.821Z,10.00
2017-08-26T07:35:07.102Z,10.60
2017-08-26T07:36:04.353Z,10.80
2017-08-26T07:37:01.741Z,12.70
2017-08-26T07:37:59.026Z,11.20
2017-08-26T07:38:56.298Z,12.20
2017-08-26T07:39:53.569Z,12.30
2017-08-26T07:40:50.838Z,12.40
2017-08-26T07:41:48.100Z,12.50
2017-08-26T07:42:45.393Z,12.70
2017-08-26T07:43:42.638Z,13.20
2017-08-26T07:44:39.917Z,14.10
2017-08-26T07:45:37.158Z,12.70
2017-08-26T07:46:34.469Z,12.00
2017-08-26T07:47:31.718Z,11.90
2017-08-26T07:48:29.017Z,11.40
2017-08-26T07:49:26.273Z,11.20
2017-08-26T07:50:23.556Z,11.50
2017-08-26T07:51:20.827Z,11.70
2017-08-26T07:52:18.081Z,12.60
2017-08-26T07:53:15.354Z,11.50
2017-08-26T07:54:12.629Z,12.20
2017-08-26T07:55:09.869Z,11.90
2017-08-26T07:56:07.150Z,12.40
2017-08-26T07:57:04.413Z,12.20
2017-08-26T07:58:01.791Z,12.60
2017-08-26T07:58:59.033Z,12.20
2017-08-26T07:59:56.302Z,11.50
2017-08-26T08:00:53.560Z,11.70
2017-08-26T08:01:50.825Z,11.60
2017-08-26T08:02:48.096Z,13.00
2017-08-26T08:03:45.400Z,12.20
2017-08-26T08:04:42.666Z,12.30
2017-08-26T08:05:39.946Z,12.30
2017-08-26T08:06:37.207Z,13.20
2017-08-26T08:07:34.494Z,12.80
2017-08-26T08:08:31.783Z,13.50
2017-08-26T08:09:29.075Z,14.00
2017-08-26T08:10:26.341Z,14.20
2017-08-26T08:11:23.625Z,15.40
2017-08-26T08:12:20.890Z,15.10
2017-08-26T08:13:18.184Z,13.10
2017-08-26T08:14:15.466Z,13.70
2017-08-26T08:15:12.764Z,14.20
2017-08-26T08:16:10.024Z,13.70
2017-08-26T08:17:07.320Z,13.60
2017-08-26T08:18:04.566Z,13.80
2017-08-26T08:19:01.878Z,14.30
2017-08-26T08:19:59.154Z,14.50
2017-08-26T08:20:56.434Z,14.30
2017-08-26T08:21:53.746Z,14.50
2017-08-26T08:22:51.018Z,15.00
2017-08-26T08:23:48.289Z,15.90
2017-08-26T08:24:45.674Z,16.10
2017-08-26T08:25:42.941Z,13.10
2017-08-26T08:26:40.226Z,15.20
2017-08-26T08:27:37.495Z,15.70
2017-08-26T08:28:34.838Z,15.40
2017-08-26T08:29:32.101Z,15.40
2017-08-26T08:30:29.947Z,16.80
2017-08-26T08:31:27.346Z,17.10
2017-08-26T08:32:24.629Z,17.30
2017-08-26T08:33:21.893Z,15.70
2017-08-26T08:34:19.307Z,16.20
2017-08-26T08:35:16.583Z,17.90
2017-08-26T08:36:13.905Z,17.50
2017-08-26T08:37:11.154Z,19.10
2017-08-26T08:38:08.459Z,18.40
2017-08-26T08:39:05.741Z,21.10
2017-08-26T08:40:03.013Z,18.70
2017-08-26T08:41:00.297Z,18.40
2017-08-26T08:41:57.578Z,17.60
2017-08-26T08:42:54.841Z,20.50
2017-08-26T08:43:52.153Z,20.00
2017-08-26T08:44:49.408Z,21.60
2017-08-26T08:45:46.695Z,21.40
2017-08-26T08:46:43.973Z,21.80
2017-08-26T08:47:41.262Z,23.00
2017-08-26T08:48:38.525Z,23.00
2017-08-26T08:49:35.817Z,21.90
2017-08-26T08:50:33.118Z,21.50
2017-08-26T08:51:30.445Z,27.30
2017-08-26T08:52:27.697Z,25.20
2017-08-26T08:53:24.970Z,23.30
2017-08-26T08:54:22.246Z,25.90
2017-08-26T08:55:19.546Z,25.70
2017-08-26T08:56:16.844Z,24.60
2017-08-26T08:57:14.138Z,27.80
2017-08-26T08:58:11.401Z,27.20
2017-08-26T08:59:08.721Z,27.20
2017-08-26T09:00:06.068Z,28.50
2017-08-26T09:01:03.370Z,29.00
2017-08-26T09:02:00.628Z,28.30
2017-08-26T09:02:57.918Z,27.90
2017-08-26T09:03:55.270Z,26.40
2017-08-26T09:04:52.570Z,29.90
2017-08-26T09:05:49.912Z,28.80
2017-08-26T09:06:47.258Z,27.20
2017-08-26T09:07:44.552Z,28.40
2017-08-26T09:08:41.827Z,26.60
2017-08-26T09:09:39.117Z,25.20
2017-08-26T09:10:36.412Z,28.40
2017-08-26T09:11:33.678Z,26.40
2017-08-26T09:12:30.962Z,28.00
2017-08-26T09:13:28.246Z,26.20
2017-08-26T09:14:25.545Z,25.40
2017-08-26T09:15:22.797Z,29.10
2017-08-26T09:16:20.053Z,28.70
2017-08-26T09:17:17.326Z,29.20
2017-08-26T09:18:14.584Z,28.30
2017-08-26T09:19:11.830Z,29.70
2017-08-26T09:20:09.128Z,29.10
2017-08-26T09:21:06.377Z,29.80
2017-08-26T09:22:03.637Z,29.70
2017-08-26T09:23:00.890Z,30.00
2017-08-26T09:23:58.173Z,30.50
2017-08-26T09:24:55.498Z,28.80
2017-08-26T09:25:52.765Z,30.50
2017-08-26T09:26:50.010Z,29.70
2017-08-26T09:27:47.287Z,30.60
2017-08-26T09:28:44.554Z,30.60
2017-08-26T09:29:41.837Z,29.70
2017-08-26T09:30:39.114Z,31.40
2017-08-26T09:31:36.386Z,31.70
2017-08-26T09:32:33.631Z,30.20
2017-08-26T09:33:30.897Z,32.00
2017-08-26T09:34:28.167Z,28.80
2017-08-26T09:35:25.466Z,29.20
2017-08-26T09:36:22.735Z,29.10
2017-08-26T09:37:19.998Z,30.10
2017-08-26T09:38:17.234Z,28.40
2017-08-26T09:39:14.502Z,29.10
2017-08-26T09:40:11.762Z,30.40
2017-08-26T09:41:09.042Z,30.60
2017-08-26T09:42:06.308Z,29.00
2017-08-26T09:43:03.574Z,29.20
2017-08-26T09:44:00.866Z,29.90
2017-08-26T09:44:58.133Z,30.10
2017-08-26T09:45:55.442Z,27.80
2017-08-26T09:46:52.710Z,30.30
2017-08-26T09:47:49.966Z,28.80
2017-08-26T09:48:47.249Z,31.40
2017-08-26T09:49:44.513Z,29.70
2017-08-26T09:50:43.842Z,28.80
2017-08-26T09:51:41.118Z,28.80
2017-08-26T09:52:38.413Z,27.80
2017-08-26T09:53:35.689Z,29.10
2017-08-26T09:54:32.968Z,29.90
2017-08-26T09:55:30.225Z,27.70
2017-08-26T09:56:27.539Z,28.60
2017-08-26T09:57:24.809Z,26.60
2017-08-26T09:58:22.116Z,28.40
2017-08-26T09:59:19.381Z,27.00
2017-08-26T10:00:16.671Z,27.30
2017-08-26T10:01:13.955Z,28.10
2017-08-26T10:02:11.225Z,26.90
2017-08-26T10:03:08.453Z,29.90
2017-08-26T10:04:05.721Z,25.80
2017-08-26T10:05:03.145Z,27.80
2017-08-26T10:06:00.443Z,30.60
2017-08-26T10:06:57.703Z,29.90
2017-08-26T10:07:54.986Z,27.20
2017-08-26T10:08:52.282Z,28.20
2017-08-26T10:09:49.545Z,27.20
2017-08-26T10:10:46.789Z,27.10
2017-08-26T10:11:44.093Z,29.40
2017-08-26T10:12:41.361Z,29.20
2017-08-26T10:13:38.638Z,28.30
2017-08-26T10:14:35.898Z,30.90
2017-08-26T10:15:33.262Z,28.10
2017-08-26T10:16:30.513Z,26.80
2017-08-26T10:17:27.801Z,26.90
2017-08-26T10:18:25.076Z,27.40
2017-08-26T10:19:22.341Z,26.40
2017-08-26T10:20:19.599Z,25.10
2017-08-26T10:21:16.881Z,25.70
2017-08-26T10:22:14.136Z,25.30
2017-08-26T10:23:11.406Z,26.70
2017-08-26T10:24:08.663Z,26.40
2017-08-26T10:25:05.945Z,26.70
2017-08-26T10:26:03.205Z,28.60
2017-08-26T10:27:00.521Z,28.20
2017-08-26T10:27:57.798Z,25.50
2017-08-26T10:28:55.071Z,26.70
2017-08-26T10:29:52.329Z,27.00
2017-08-26T10:30:49.634Z,26.40
2017-08-26T10:31:48.996Z,24.10
2017-08-26T10:32:48.338Z,23.20
2017-08-26T10:33:45.613Z,23.30
2017-08-26T10:34:42.926Z,23.60
2017-08-26T10:35:42.246Z,23.90
2017-08-26T10:36:39.629Z,22.50
2017-08-26T10:37:36.970Z,21.60
2017-08-26T10:38:34.347Z,22.10
2017-08-26T10:39:31.706Z,22.40
2017-08-26T10:40:29.065Z,23.70
2017-08-26T10:41:26.398Z,25.30
2017-08-26T10:42:23.825Z,26.60
2017-08-26T10:43:21.201Z,25.10
2017-08-26T10:44:18.559Z,23.20
2017-08-26T10:45:15.883Z,26.20
2017-08-26T10:46:13.245Z,25.60
2017-08-26T10:47:10.597Z,21.00
2017-08-26T10:48:07.950Z,21.80
2017-08-26T10:49:05.282Z,20.70
2017-08-26T10:50:02.662Z,20.60
2017-08-26T10:50:59.981Z,22.10
2017-08-26T10:51:57.326Z,21.40
2017-08-26T10:52:54.729Z,20.40
2017-08-26T10:53:52.062Z,19.10
2017-08-26T10:54:49.655Z,19.10
2017-08-26T10:55:46.947Z,18.10
2017-08-26T10:56:44.308Z,17.90
2017-08-26T10:57:41.738Z,20.10
2017-08-26T10:58:39.014Z,17.90
2017-08-26T10:59:36.322Z,17.90
2017-08-26T11:00:33.613Z,16.80
2017-08-26T11:01:30.903Z,17.20
2017-08-26T11:02:28.205Z,17.80
2017-08-26T11:03:25.518Z,15.70
2017-08-26T11:04:22.820Z,16.00
2017-08-26T11:05:20.102Z,15.20
2017-08-26T11:06:17.385Z,13.70
2017-08-26T11:07:14.664Z,13.80
2017-08-26T11:08:11.936Z,16.30
2017-08-26T11:09:09.210Z,14.50
2017-08-26T11:10:06.474Z,15.10
2017-08-26T11:11:03.766Z,15.50
2017-08-26T11:12:01.035Z,15.60
2017-08-26T11:12:58.328Z,14.50
2017-08-26T11:13:55.609Z,14.20
2017-08-26T11:14:56.847Z,14.00
2017-08-26T11:15:58.085Z,12.70
2017-08-26T11:16:55.406Z,14.00
2017-08-26T11:17:52.670Z,14.10
2017-08-26T11:18:50.106Z,13.50
2017-08-26T11:19:48.531Z,12.60
2017-08-26T11:20:45.851Z,12.20
2017-08-26T11:21:43.146Z,13.20
2017-08-26T11:22:40.419Z,12.60
2017-08-26T11:23:37.901Z,12.00
2017-08-26T11:24:35.225Z,13.00
2017-08-26T11:25:32.639Z,12.80
2017-08-26T11:26:29.938Z,13.10
2017-08-26T11:27:27.234Z,12.60
2017-08-26T11:28:24.623Z,13.20
2017-08-26T11:29:21.935Z,14.60
2017-08-26T11:30:19.453Z,12.70
2017-08-26T11:31:17.027Z,11.40
2017-08-26T11:32:14.312Z,12.50
2017-08-26T11:33:11.585Z,12.00
2017-08-26T11:34:08.899Z,11.60
2017-08-26T11:35:06.239Z,12.40
2017-08-26T11:36:03.538Z,13.40
2017-08-26T11:37:00.832Z,12.60
2017-08-26T11:37:58.161Z,12.40
2017-08-26T11:38:55.484Z,10.50
2017-08-26T11:39:52.767Z,11.80
2017-08-26T11:40:50.045Z,11.50
2017-08-26T11:41:47.325Z,11.50
2017-08-26T11:42:44.630Z,10.40
2017-08-26T11:43:41.946Z,11.60
2017-08-26T11:44:39.233Z,9.90
2017-08-26T11:45:36.517Z,9.50
2017-08-26T11:46:33.778Z,10.70
2017-08-26T11:47:31.075Z,10.50
2017-08-26T11:48:28.356Z,10.30
2017-08-26T11:49:25.660Z,9.90
2017-08-26T11:50:22.925Z,10.50
2017-08-26T11:51:20.329Z,10.20
2017-08-26T11:52:17.686Z,10.50
2017-08-26T11:53:15.043Z,9.10
2017-08-26T11:54:12.346Z,9.60
2017-08-26T11:55:10.013Z,10.30
2017-08-26T11:56:07.300Z,8.70
2017-08-26T11:57:04.612Z,9.60
2017-08-26T11:58:01.882Z,9.00
2017-08-26T11:58:59.203Z,8.30
2017-08-26T11:59:56.825Z,8.90
2017-08-26T12:00:54.117Z,8.70
2017-08-26T12:01:51.392Z,8.40
2017-08-26T12:02:48.706Z,9.70
2017-08-26T12:03:45.974Z,10.30
2017-08-26T12:04:43.288Z,9.40
2017-08-26T12:05:40.581Z,9.40
2017-08-26T12:06:37.859Z,10.00
2017-08-26T12:07:35.182Z,8.60
2017-08-26T12:08:32.531Z,8.00
2017-08-26T12:09:29.838Z,8.80
2017-08-26T12:10:27.136Z,8.20
2017-08-26T12:11:24.421Z,8.00
2017-08-26T12:12:21.689Z,8.10
2017-08-26T12:13:18.974Z,9.00
2017-08-26T12:14:16.261Z,8.90
2017-08-26T12:15:13.596Z,7.80
2017-08-26T12:16:10.918Z,8.10
2017-08-26T12:17:08.198Z,8.00
2017-08-26T12:18:05.483Z,9.30
2017-08-26T12:19:02.742Z,8.00
2017-08-26T12:20:00.038Z,8.60
2017-08-26T12:20:57.322Z,8.00
2017-08-26T12:21:54.606Z,8.70
2017-08-26T12:22:51.869Z,9.00
2017-08-26T12:23:49.165Z,9.10
2017-08-26T12:24:46.466Z,8.50
2017-08-26T12:25:43.913Z,8.30
2017-08-26T12:26:41.185Z,9.20
2017-08-26T12:27:38.474Z,10.50
2017-08-26T12:28:35.732Z,10.20
2017-08-26T12:29:33.009Z,8.80
2017-08-26T12:30:30.297Z,8.40
2017-08-26T12:31:27.591Z,8.60
2017-08-26T12:32:24.866Z,9.50
2017-08-26T12:33:22.157Z,9.20